createdAt,value
2017-03-31T00:00:22.267Z,23.7
2017-03-31T00:01:30.357Z,23.8
2017-03-31T00:02:38.448Z,23.8
2017-03-31T00:03:46.537Z,23.8
2017-03-31T00:04:54.625Z,23.8
2017-03-31T00:06:02.716Z,23.8
2017-03-31T00:07:10.802Z,23.8
2017-03-31T00:08:18.886Z,23.8
2017-03-31T00:09:26.972Z,23.7
2017-03-31T00:10:35.063Z,23.7
2017-03-31T00:11:43.148Z,23.8
2017-03-31T00:12:51.237Z,23.7
2017-03-31T00:13:59.328Z,23.7
2017-03-31T00:15:07.421Z,23.6
2017-03-31T00:16:15.507Z,23.6
2017-03-31T00:17:23.597Z,23.7
2017-03-31T00:18:31.684Z,23.7
2017-03-31T00:19:39.774Z,23.6
2017-03-31T00:20:47.858Z,23.7
2017-03-31T00:21:55.949Z,23.6
2017-03-31T00:23:04.038Z,23.6
2017-03-31T00:24:12.127Z,23.6
2017-03-31T00:25:20.220Z,23.6
2017-03-31T00:26:28.312Z,23.6
2017-03-31T00:27:36.406Z,23.6
2017-03-31T00:28:44.491Z,23.6
2017-03-31T00:29:52.584Z,23.6
2017-03-31T00:31:00.673Z,23.5
2017-03-31T00:32:08.761Z,23.6
2017-03-31T00:33:16.843Z,23.5
2017-03-31T00:34:24.936Z,23.6
2017-03-31T00:35:33.020Z,23.5
2017-03-31T00:36:41.114Z,23.5
2017-03-31T00:37:49.200Z,23.5
2017-03-31T00:38:57.287Z,23.5
2017-03-31T00:40:05.374Z,23.6
2017-03-31T00:41:13.459Z,23.5
2017-03-31T00:42:21.549Z,23.4
2017-03-31T00:43:29.637Z,23.5
2017-03-31T00:44:37.721Z,23.4
2017-03-31T00:45:45.908Z,23.5
2017-03-31T00:46:53.900Z,23.4
2017-03-31T00:48:01.987Z,23.5
2017-03-31T00:49:10.072Z,23.4
2017-03-31T00:50:18.161Z,23.4
2017-03-31T00:51:26.248Z,23.5
2017-03-31T00:52:34.331Z,23.5
2017-03-31T00:53:42.423Z,23.3
2017-03-31T00:54:50.509Z,23.4
2017-03-31T00:55:58.597Z,23.5
2017-03-31T00:57:06.686Z,23.4
2017-03-31T00:58:14.769Z,23.4
2017-03-31T00:59:22.858Z,23.4
2017-03-31T01:00:30.954Z,23.4
2017-03-31T01:01:39.041Z,23.3
2017-03-31T01:02:47.153Z,23.3
2017-03-31T01:03:55.210Z,23.3
2017-03-31T01:05:03.302Z,23.3
2017-03-31T01:06:20.103Z,23.3
2017-03-31T01:07:19.481Z,23.3
2017-03-31T01:08:27.559Z,23.3
2017-03-31T01:09:35.651Z,23.3
2017-03-31T01:10:43.734Z,23.3
2017-03-31T01:11:51.820Z,23.3
2017-03-31T01:12:59.909Z,23.3
2017-03-31T01:14:08.003Z,23.2
2017-03-31T01:15:16.086Z,23.2
2017-03-31T01:16:24.173Z,23.2
2017-03-31T01:17:32.265Z,23.3
2017-03-31T01:18:40.351Z,23.2
2017-03-31T01:19:48.439Z,23.2
2017-03-31T01:20:56.524Z,23.1
2017-03-31T01:22:04.620Z,23.1
2017-03-31T01:23:12.706Z,23.2
2017-03-31T01:24:20.791Z,23.2
2017-03-31T01:25:28.882Z,23.1
2017-03-31T01:26:36.967Z,23.2
2017-03-31T01:27:45.053Z,23.1
2017-03-31T01:28:53.149Z,23.1
2017-03-31T01:30:01.236Z,23.1
2017-03-31T01:31:09.320Z,23.0
2017-03-31T01:32:17.401Z,23.0
2017-03-31T01:33:25.492Z,23.1
2017-03-31T01:34:33.580Z,23.1
2017-03-31T01:35:41.664Z,23.0
2017-03-31T01:36:49.755Z,23.1
2017-03-31T01:37:57.841Z,23.1
2017-03-31T01:39:05.925Z,22.9
2017-03-31T01:40:14.012Z,23.0
2017-03-31T01:41:22.101Z,23.0
2017-03-31T01:42:30.190Z,23.0
2017-03-31T01:43:38.270Z,22.9
2017-03-31T01:44:46.363Z,23.0
2017-03-31T01:45:55.445Z,22.9
2017-03-31T01:47:02.533Z,23.0
2017-03-31T01:48:10.618Z,22.9
2017-03-31T01:49:18.709Z,22.9
2017-03-31T01:50:26.796Z,22.9
2017-03-31T01:51:34.880Z,22.8
2017-03-31T01:52:42.970Z,22.8
2017-03-31T01:53:51.068Z,22.8
2017-03-31T01:54:59.144Z,22.9
2017-03-31T01:56:07.228Z,22.9
2017-03-31T01:57:15.318Z,22.8
2017-03-31T01:58:23.404Z,22.8
2017-03-31T01:59:31.492Z,22.7
2017-03-31T02:00:39.589Z,22.8
2017-03-31T02:01:47.670Z,22.7
2017-03-31T02:02:55.753Z,22.9
2017-03-31T02:04:03.842Z,22.8
2017-03-31T02:05:11.929Z,22.8
2017-03-31T02:06:20.016Z,22.8
2017-03-31T02:07:40.433Z,22.7
2017-03-31T02:08:36.197Z,22.8
2017-03-31T02:09:44.289Z,22.8
2017-03-31T02:10:52.375Z,22.7
2017-03-31T02:12:00.465Z,22.7
2017-03-31T02:13:08.550Z,22.6
2017-03-31T02:14:16.633Z,22.6
2017-03-31T02:15:24.720Z,22.7
2017-03-31T02:16:32.810Z,22.6
2017-03-31T02:17:40.902Z,22.7
2017-03-31T02:18:48.988Z,22.7
2017-03-31T02:19:57.077Z,22.6
2017-03-31T02:21:05.163Z,22.6
2017-03-31T02:22:13.249Z,22.6
2017-03-31T02:23:21.336Z,22.6
2017-03-31T02:24:29.426Z,22.6
2017-03-31T02:25:37.517Z,22.5
2017-03-31T02:26:45.605Z,22.6
2017-03-31T02:27:53.694Z,22.5
2017-03-31T02:29:01.778Z,22.6
2017-03-31T02:30:09.865Z,22.6
2017-03-31T02:31:17.948Z,22.5
2017-03-31T02:32:26.081Z,22.5
2017-03-31T02:33:34.127Z,22.5
2017-03-31T02:34:42.209Z,22.5
2017-03-31T02:35:50.301Z,22.5
2017-03-31T02:36:58.391Z,22.5
2017-03-31T02:38:06.470Z,22.5
2017-03-31T02:39:14.556Z,22.5
2017-03-31T02:40:22.702Z,22.4
2017-03-31T02:41:30.731Z,22.4
2017-03-31T02:42:38.897Z,22.5
2017-03-31T02:43:46.903Z,22.4
2017-03-31T02:44:54.990Z,22.4
2017-03-31T02:46:03.073Z,22.4
2017-03-31T02:47:11.158Z,22.4
2017-03-31T02:48:19.254Z,22.4
2017-03-31T02:49:27.339Z,22.3
2017-03-31T02:50:35.425Z,22.3
2017-03-31T02:51:43.512Z,22.2
2017-03-31T02:52:51.600Z,22.2
2017-03-31T02:53:59.684Z,22.2
2017-03-31T02:55:07.770Z,22.2
2017-03-31T02:56:15.859Z,22.3
2017-03-31T02:57:24.185Z,22.2
2017-03-31T02:58:32.030Z,22.3
2017-03-31T02:59:40.198Z,22.3
2017-03-31T03:00:48.207Z,22.3
2017-03-31T03:01:56.291Z,22.2
2017-03-31T03:03:04.383Z,22.1
2017-03-31T03:04:12.497Z,22.3
2017-03-31T03:05:20.559Z,22.3
2017-03-31T03:06:28.644Z,22.2
2017-03-31T03:07:36.757Z,22.2
2017-03-31T03:08:44.824Z,22.1
2017-03-31T03:09:52.913Z,22.2
2017-03-31T03:11:01.002Z,22.1
2017-03-31T03:12:09.088Z,22.1
2017-03-31T03:13:17.171Z,22.1
2017-03-31T03:14:25.258Z,22.0
2017-03-31T03:15:33.347Z,22.1
2017-03-31T03:16:41.432Z,22.1
2017-03-31T03:17:49.521Z,22.1
2017-03-31T03:18:57.608Z,22.0
2017-03-31T03:20:05.694Z,22.0
2017-03-31T03:21:13.782Z,22.1
2017-03-31T03:22:21.865Z,22.0
2017-03-31T03:23:29.951Z,22.0
2017-03-31T03:24:38.038Z,22.0
2017-03-31T03:25:46.226Z,22.0
2017-03-31T03:26:54.269Z,22.0
2017-03-31T03:28:02.299Z,22.0
2017-03-31T03:29:10.386Z,21.9
2017-03-31T03:30:18.471Z,21.9
2017-03-31T03:31:26.558Z,21.9
2017-03-31T03:32:34.651Z,21.9
2017-03-31T03:33:42.725Z,21.9
2017-03-31T03:34:50.814Z,21.9
2017-03-31T03:35:58.900Z,21.9
2017-03-31T03:37:06.995Z,21.9
2017-03-31T03:38:15.071Z,21.8
2017-03-31T03:39:23.162Z,21.9
2017-03-31T03:40:31.248Z,21.8
2017-03-31T03:41:39.352Z,21.8
2017-03-31T03:42:47.424Z,21.8
2017-03-31T03:43:55.510Z,21.8
2017-03-31T03:45:03.597Z,21.8
2017-03-31T03:46:11.677Z,21.7
2017-03-31T03:47:19.767Z,21.8
2017-03-31T03:48:27.852Z,21.8
2017-03-31T03:49:35.935Z,21.7
2017-03-31T03:50:44.097Z,21.7
2017-03-31T03:51:52.111Z,21.7
2017-03-31T03:53:00.597Z,21.7
2017-03-31T03:54:08.282Z,21.6
2017-03-31T03:55:16.370Z,21.7
2017-03-31T03:56:24.460Z,21.6
2017-03-31T03:57:32.728Z,21.7
2017-03-31T03:58:40.634Z,21.6
2017-03-31T03:59:48.719Z,21.6
2017-03-31T04:00:56.803Z,21.6
2017-03-31T04:02:04.889Z,21.7
2017-03-31T04:03:12.977Z,21.6
2017-03-31T04:04:21.066Z,21.6
2017-03-31T04:05:29.147Z,21.6
2017-03-31T04:06:37.238Z,21.6
2017-03-31T04:07:45.321Z,21.6
2017-03-31T04:08:53.405Z,21.6
2017-03-31T04:10:01.490Z,21.5
2017-03-31T04:11:09.579Z,21.6
2017-03-31T04:12:17.665Z,21.6
2017-03-31T04:13:25.748Z,21.6
2017-03-31T04:14:33.857Z,21.7
2017-03-31T04:15:41.935Z,21.6
2017-03-31T04:16:50.013Z,21.5
2017-03-31T04:17:58.096Z,21.5
2017-03-31T04:19:06.188Z,21.6
2017-03-31T04:20:14.274Z,21.5
2017-03-31T04:21:22.356Z,21.5
2017-03-31T04:22:30.446Z,21.5
2017-03-31T04:23:38.532Z,21.5
2017-03-31T04:24:46.615Z,21.4
2017-03-31T04:25:54.711Z,21.4
2017-03-31T04:27:02.786Z,21.4
2017-03-31T04:28:10.878Z,21.4
2017-03-31T04:29:18.960Z,21.4
2017-03-31T04:30:27.048Z,21.4
2017-03-31T04:31:35.143Z,21.4
2017-03-31T04:32:43.232Z,21.4
2017-03-31T04:33:51.310Z,21.3
2017-03-31T04:34:59.400Z,21.4
2017-03-31T04:36:07.484Z,21.3
2017-03-31T04:37:15.949Z,21.3
2017-03-31T04:38:23.657Z,21.4
2017-03-31T04:39:31.742Z,21.4
2017-03-31T04:40:39.822Z,21.3
2017-03-31T04:41:47.910Z,21.4
2017-03-31T04:42:55.996Z,21.3
2017-03-31T04:44:04.084Z,21.3
2017-03-31T04:45:12.164Z,21.3
2017-03-31T04:46:20.255Z,21.3
2017-03-31T04:47:28.335Z,21.3
2017-03-31T04:48:36.422Z,21.2
2017-03-31T04:49:44.512Z,21.3
2017-03-31T04:50:52.597Z,21.3
2017-03-31T04:52:00.688Z,21.2
2017-03-31T04:53:08.771Z,21.2
2017-03-31T04:54:16.861Z,21.1
2017-03-31T04:55:24.946Z,21.1
2017-03-31T04:56:33.096Z,21.2
2017-03-31T04:57:41.119Z,21.2
2017-03-31T04:58:49.207Z,21.2
2017-03-31T04:59:57.287Z,21.1
2017-03-31T05:01:05.376Z,21.1
2017-03-31T05:02:13.463Z,21.0
2017-03-31T05:03:21.552Z,21.0
2017-03-31T05:04:29.636Z,21.2
2017-03-31T05:05:37.724Z,21.0
2017-03-31T05:06:45.813Z,21.1
2017-03-31T05:07:53.902Z,21.1
2017-03-31T05:09:01.984Z,21.1
2017-03-31T05:10:10.072Z,21.0
2017-03-31T05:11:18.154Z,21.0
2017-03-31T05:12:26.238Z,21.0
2017-03-31T05:13:34.330Z,21.0
2017-03-31T05:14:42.417Z,21.0
2017-03-31T05:15:50.502Z,21.0
2017-03-31T05:16:58.596Z,21.1
2017-03-31T05:18:06.687Z,21.0
2017-03-31T05:19:14.771Z,21.0
2017-03-31T05:20:22.852Z,21.0
2017-03-31T05:21:30.943Z,21.0
2017-03-31T05:22:39.024Z,21.0
2017-03-31T05:23:47.108Z,20.9
2017-03-31T05:24:55.205Z,20.9
2017-03-31T05:26:03.341Z,20.9
2017-03-31T05:27:11.376Z,20.9
2017-03-31T05:28:19.464Z,20.9
2017-03-31T05:29:27.550Z,20.9
2017-03-31T05:30:35.631Z,20.9
2017-03-31T05:31:43.718Z,20.9
2017-03-31T05:32:51.804Z,20.9
2017-03-31T05:33:59.889Z,20.9
2017-03-31T05:35:07.972Z,20.9
2017-03-31T05:36:16.057Z,20.9
2017-03-31T05:37:24.468Z,20.9
2017-03-31T05:38:32.229Z,20.9
2017-03-31T05:39:40.313Z,20.9
2017-03-31T05:40:48.400Z,20.8
2017-03-31T05:41:56.485Z,20.8
2017-03-31T05:43:04.656Z,20.9
2017-03-31T05:44:12.657Z,20.8
2017-03-31T05:45:20.739Z,20.8
2017-03-31T05:46:28.824Z,20.8
2017-03-31T05:47:36.907Z,20.8
2017-03-31T05:48:45.000Z,20.8
2017-03-31T05:49:53.080Z,20.8
2017-03-31T05:51:01.167Z,20.9
2017-03-31T05:52:09.254Z,20.7
2017-03-31T05:53:17.348Z,20.9
2017-03-31T05:54:25.425Z,20.7
2017-03-31T05:55:33.514Z,20.7
2017-03-31T05:56:41.598Z,20.8
2017-03-31T05:57:49.685Z,20.7
2017-03-31T05:58:57.767Z,20.7
2017-03-31T06:00:05.866Z,20.7
2017-03-31T06:01:13.940Z,20.7
2017-03-31T06:02:22.025Z,20.7
2017-03-31T06:03:30.111Z,20.7
2017-03-31T06:04:38.200Z,20.7
2017-03-31T06:05:46.295Z,20.7
2017-03-31T06:06:54.374Z,20.7
2017-03-31T06:08:02.455Z,20.7
2017-03-31T06:09:10.543Z,20.7
2017-03-31T06:10:18.626Z,20.6
2017-03-31T06:11:26.708Z,20.7
2017-03-31T06:12:34.799Z,20.7
2017-03-31T06:13:42.884Z,20.7
2017-03-31T06:14:50.969Z,20.6
2017-03-31T06:15:59.052Z,20.7
2017-03-31T06:17:07.143Z,20.7
2017-03-31T06:18:15.230Z,20.6
2017-03-31T06:19:23.310Z,20.6
2017-03-31T06:20:31.400Z,20.6
2017-03-31T06:21:39.484Z,20.6
2017-03-31T06:22:47.567Z,20.7
2017-03-31T06:23:55.663Z,20.6
2017-03-31T06:25:03.746Z,20.7
2017-03-31T06:26:11.827Z,20.6
2017-03-31T06:27:19.914Z,20.6
2017-03-31T06:28:28.000Z,20.6
2017-03-31T06:29:36.086Z,20.7
2017-03-31T06:30:44.171Z,20.6
2017-03-31T06:31:52.259Z,20.7
2017-03-31T06:33:00.342Z,20.6
2017-03-31T06:34:08.422Z,20.6
2017-03-31T06:35:16.511Z,20.6
2017-03-31T06:36:24.597Z,20.6
2017-03-31T06:37:32.686Z,20.6
2017-03-31T06:38:41.429Z,20.6
2017-03-31T06:39:49.200Z,20.6
2017-03-31T06:40:57.006Z,20.6
2017-03-31T06:42:05.034Z,20.6
2017-03-31T06:43:13.123Z,20.6
2017-03-31T06:44:21.205Z,20.6
2017-03-31T06:45:29.289Z,20.6
2017-03-31T06:46:37.369Z,20.5
2017-03-31T06:47:45.456Z,20.6
2017-03-31T06:48:53.541Z,20.6
2017-03-31T06:50:01.627Z,20.6
2017-03-31T06:51:09.714Z,20.5
2017-03-31T06:52:17.803Z,20.6
2017-03-31T06:53:25.889Z,20.5
2017-03-31T06:54:33.973Z,20.5
2017-03-31T06:55:42.058Z,20.4
2017-03-31T06:56:50.145Z,20.5
2017-03-31T06:57:58.236Z,20.5
2017-03-31T06:59:06.321Z,20.5
2017-03-31T07:00:14.409Z,20.5
2017-03-31T07:01:22.493Z,20.6
2017-03-31T07:02:30.576Z,20.6
2017-03-31T07:03:38.665Z,20.6
2017-03-31T07:04:46.751Z,20.5
2017-03-31T07:05:54.835Z,20.5
2017-03-31T07:07:02.918Z,20.5
2017-03-31T07:08:11.006Z,20.6
2017-03-31T07:09:19.092Z,20.5
2017-03-31T07:10:27.179Z,20.5
2017-03-31T07:11:35.271Z,20.5
2017-03-31T07:12:43.354Z,20.5
2017-03-31T07:13:51.438Z,20.5
2017-03-31T07:14:59.526Z,20.5
2017-03-31T07:16:07.613Z,20.5
2017-03-31T07:17:15.698Z,20.5
2017-03-31T07:18:23.783Z,20.5
2017-03-31T07:19:31.868Z,20.6
2017-03-31T07:20:39.953Z,20.4
2017-03-31T07:21:48.034Z,20.5
2017-03-31T07:22:56.138Z,20.5
2017-03-31T07:24:04.222Z,20.5
2017-03-31T07:25:12.302Z,20.4
2017-03-31T07:26:20.387Z,20.5
2017-03-31T07:27:28.489Z,20.5
2017-03-31T07:28:36.561Z,20.5
2017-03-31T07:29:44.722Z,20.4
2017-03-31T07:30:52.737Z,20.5
2017-03-31T07:32:00.825Z,20.4
2017-03-31T07:33:08.910Z,20.4
2017-03-31T07:34:16.993Z,20.4
2017-03-31T07:35:25.081Z,20.4
2017-03-31T07:36:33.163Z,20.4
2017-03-31T07:37:41.247Z,20.4
2017-03-31T07:38:49.334Z,20.5
2017-03-31T07:39:57.421Z,20.4
2017-03-31T07:41:05.509Z,20.5
2017-03-31T07:42:13.601Z,20.5
2017-03-31T07:43:21.686Z,20.5
2017-03-31T07:44:30.155Z,20.5
2017-03-31T07:45:37.854Z,20.4
2017-03-31T07:46:45.944Z,20.5
2017-03-31T07:47:54.036Z,20.5
2017-03-31T07:49:02.109Z,20.5
2017-03-31T07:50:10.195Z,20.5
2017-03-31T07:51:18.309Z,20.5
2017-03-31T07:52:26.369Z,20.5
2017-03-31T07:53:34.455Z,20.5
2017-03-31T07:54:42.539Z,20.5
2017-03-31T07:55:50.625Z,20.5
2017-03-31T07:56:58.920Z,20.5
2017-03-31T07:58:06.798Z,20.6
2017-03-31T07:59:14.885Z,20.5
2017-03-31T08:00:22.972Z,20.6
2017-03-31T08:01:31.060Z,20.5
2017-03-31T08:02:39.148Z,20.5
2017-03-31T08:03:47.237Z,20.5
2017-03-31T08:04:55.320Z,20.5
2017-03-31T08:06:03.417Z,20.6
2017-03-31T08:07:12.130Z,20.6
2017-03-31T08:08:19.581Z,20.6
2017-03-31T08:09:27.667Z,20.5
2017-03-31T08:10:35.753Z,20.6
2017-03-31T08:11:43.887Z,20.6
2017-03-31T08:12:51.919Z,20.6
2017-03-31T08:14:00.011Z,20.6
2017-03-31T08:15:08.091Z,20.6
2017-03-31T08:16:16.878Z,20.6
2017-03-31T08:17:24.307Z,20.7
2017-03-31T08:18:32.376Z,20.7
2017-03-31T08:19:40.451Z,20.7
2017-03-31T08:20:48.995Z,20.6
2017-03-31T08:21:56.624Z,20.8
2017-03-31T08:23:04.714Z,20.7
2017-03-31T08:24:12.800Z,20.7
2017-03-31T08:25:20.885Z,20.7
2017-03-31T08:26:28.977Z,20.7
2017-03-31T08:27:37.056Z,20.7
2017-03-31T08:28:45.317Z,20.7
2017-03-31T08:29:53.593Z,20.7
2017-03-31T08:31:01.401Z,20.8
2017-03-31T08:32:09.751Z,20.7
2017-03-31T08:33:17.484Z,20.7
2017-03-31T08:34:25.571Z,20.7
2017-03-31T08:35:33.709Z,20.7
2017-03-31T08:36:41.742Z,20.8
2017-03-31T08:37:49.829Z,20.7
2017-03-31T08:38:57.915Z,20.7
2017-03-31T08:40:06.003Z,20.8
2017-03-31T08:41:14.086Z,20.9
2017-03-31T08:42:22.177Z,20.7
2017-03-31T08:43:30.266Z,20.8
2017-03-31T08:44:38.343Z,20.8
2017-03-31T08:45:46.456Z,20.9
2017-03-31T08:46:54.525Z,20.8
2017-03-31T08:48:02.609Z,20.8
2017-03-31T08:49:10.697Z,20.7
2017-03-31T08:50:18.786Z,20.8
2017-03-31T08:51:26.873Z,20.9
2017-03-31T08:52:34.957Z,20.8
2017-03-31T08:53:43.045Z,20.9
2017-03-31T08:54:51.130Z,20.9
2017-03-31T08:55:59.217Z,20.9
2017-03-31T08:57:07.299Z,20.9
2017-03-31T08:58:15.388Z,20.8
2017-03-31T08:59:23.477Z,20.9
2017-03-31T09:00:31.559Z,20.8
2017-03-31T09:01:39.651Z,20.9
2017-03-31T09:02:47.735Z,20.9
2017-03-31T09:03:55.822Z,20.9
2017-03-31T09:05:03.903Z,20.9
2017-03-31T09:06:11.998Z,20.9
2017-03-31T09:07:20.079Z,20.9
2017-03-31T09:08:28.163Z,20.9
2017-03-31T09:09:36.254Z,20.9
2017-03-31T09:10:44.338Z,20.9
2017-03-31T09:11:52.422Z,20.9
2017-03-31T09:13:01.113Z,20.9
2017-03-31T09:14:09.121Z,20.9
2017-03-31T09:15:16.682Z,20.9
2017-03-31T09:16:24.766Z,20.9
2017-03-31T09:17:32.852Z,20.9
2017-03-31T09:18:40.940Z,20.9
2017-03-31T09:19:49.027Z,20.9
2017-03-31T09:20:57.106Z,21.0
2017-03-31T09:22:05.201Z,21.0
2017-03-31T09:23:13.877Z,20.9
2017-03-31T09:24:21.366Z,21.0
2017-03-31T09:25:29.456Z,20.9
2017-03-31T09:26:37.539Z,21.0
2017-03-31T09:27:45.623Z,21.0
2017-03-31T09:28:53.707Z,21.0
2017-03-31T09:30:01.794Z,21.1
2017-03-31T09:31:09.880Z,21.0
2017-03-31T09:32:17.964Z,21.0
2017-03-31T09:33:26.053Z,21.0
2017-03-31T09:34:34.140Z,21.0
2017-03-31T09:35:42.221Z,21.0
2017-03-31T09:36:50.308Z,21.0
2017-03-31T09:37:58.398Z,21.1
2017-03-31T09:39:06.485Z,21.0
2017-03-31T09:40:14.564Z,21.1
2017-03-31T09:41:22.655Z,21.1
2017-03-31T09:42:30.744Z,21.1
2017-03-31T09:43:38.831Z,21.0
2017-03-31T09:44:46.924Z,21.1
2017-03-31T09:45:55.009Z,21.0
2017-03-31T09:47:03.094Z,21.0
2017-03-31T09:48:11.178Z,21.1
2017-03-31T09:49:19.270Z,21.1
2017-03-31T09:50:27.356Z,21.1
2017-03-31T09:51:35.438Z,21.1
2017-03-31T09:52:43.532Z,21.2
2017-03-31T09:53:51.614Z,21.2
2017-03-31T09:54:59.706Z,21.2
2017-03-31T09:56:07.790Z,21.2
2017-03-31T09:57:15.881Z,21.1
2017-03-31T09:58:23.965Z,21.1
2017-03-31T09:59:32.047Z,21.2
2017-03-31T10:00:40.655Z,21.2
2017-03-31T10:01:48.270Z,21.1
2017-03-31T10:02:56.517Z,21.2
2017-03-31T10:04:04.394Z,21.2
2017-03-31T10:05:12.687Z,21.3
2017-03-31T10:06:20.823Z,21.2
2017-03-31T10:07:28.656Z,21.2
2017-03-31T10:08:36.742Z,21.2
2017-03-31T10:09:44.830Z,21.2
2017-03-31T10:10:52.912Z,21.2
2017-03-31T10:12:00.999Z,21.2
2017-03-31T10:13:09.096Z,21.3
2017-03-31T10:14:17.175Z,21.3
2017-03-31T10:15:25.261Z,21.3
2017-03-31T10:16:33.355Z,21.3
2017-03-31T10:17:41.446Z,21.4
2017-03-31T10:18:49.531Z,21.3
2017-03-31T10:19:57.614Z,21.3
2017-03-31T10:21:05.704Z,21.3
2017-03-31T10:22:13.796Z,21.4
2017-03-31T10:23:21.882Z,21.3
2017-03-31T10:24:29.971Z,21.4
2017-03-31T10:25:38.056Z,21.3
2017-03-31T10:26:46.476Z,21.3
2017-03-31T10:27:54.222Z,21.3
2017-03-31T10:29:02.312Z,21.3
2017-03-31T10:30:10.399Z,21.3
2017-03-31T10:31:18.510Z,21.3
2017-03-31T10:32:26.580Z,21.4
2017-03-31T10:33:34.665Z,21.4
2017-03-31T10:34:42.748Z,21.4
2017-03-31T10:35:50.832Z,21.4
2017-03-31T10:36:58.922Z,21.3
2017-03-31T10:38:07.012Z,21.3
2017-03-31T10:39:15.092Z,21.4
2017-03-31T10:40:23.182Z,21.4
2017-03-31T10:41:31.270Z,21.4
2017-03-31T10:42:39.354Z,21.4
2017-03-31T10:43:47.444Z,21.4
2017-03-31T10:44:55.530Z,21.4
2017-03-31T10:46:03.623Z,21.4
2017-03-31T10:47:11.703Z,21.5
2017-03-31T10:48:19.795Z,21.4
2017-03-31T10:49:27.987Z,21.4
2017-03-31T10:50:36.377Z,21.4
2017-03-31T10:51:44.058Z,21.4
2017-03-31T10:52:52.149Z,21.5
2017-03-31T10:54:00.234Z,21.4
2017-03-31T10:55:08.316Z,21.4
2017-03-31T10:56:16.407Z,21.4
2017-03-31T10:57:24.561Z,21.5
2017-03-31T10:58:32.582Z,21.5
2017-03-31T10:59:40.672Z,21.5
2017-03-31T11:00:48.760Z,21.4
2017-03-31T11:01:56.843Z,21.5
2017-03-31T11:03:04.928Z,21.6
2017-03-31T11:04:13.019Z,21.5
2017-03-31T11:05:21.104Z,21.5
2017-03-31T11:06:29.191Z,21.5
2017-03-31T11:07:37.277Z,21.5
2017-03-31T11:08:45.362Z,21.6
2017-03-31T11:09:53.589Z,21.5
2017-03-31T11:11:01.537Z,21.5
2017-03-31T11:12:09.625Z,21.6
2017-03-31T11:13:17.774Z,21.5
2017-03-31T11:14:25.872Z,21.6
2017-03-31T11:15:34.059Z,21.6
2017-03-31T11:16:41.968Z,21.6
2017-03-31T11:17:50.175Z,21.6
2017-03-31T11:18:58.206Z,21.6
2017-03-31T11:20:06.226Z,21.6
2017-03-31T11:21:14.317Z,21.6
2017-03-31T11:22:22.406Z,21.6
2017-03-31T11:23:30.491Z,21.6
2017-03-31T11:24:38.579Z,21.6
2017-03-31T11:25:46.661Z,21.7
2017-03-31T11:26:54.748Z,21.6
2017-03-31T11:28:02.840Z,21.6
2017-03-31T11:29:10.919Z,21.7
2017-03-31T11:30:19.007Z,21.6
2017-03-31T11:31:27.104Z,21.6
2017-03-31T11:32:35.177Z,21.6
2017-03-31T11:33:43.270Z,21.6
2017-03-31T11:34:51.349Z,21.6
2017-03-31T11:35:59.440Z,21.6
2017-03-31T11:37:07.525Z,21.6
2017-03-31T11:38:15.610Z,21.6
2017-03-31T11:39:23.698Z,21.6
2017-03-31T11:40:31.785Z,21.6
2017-03-31T11:41:39.871Z,21.7
2017-03-31T11:42:47.953Z,21.7
2017-03-31T11:43:56.054Z,21.6
2017-03-31T11:45:04.131Z,21.6
2017-03-31T11:46:12.213Z,21.6
2017-03-31T11:47:20.302Z,21.6
2017-03-31T11:48:28.389Z,21.6
2017-03-31T11:49:36.479Z,21.7
2017-03-31T11:50:44.567Z,21.6
2017-03-31T11:51:52.657Z,21.6
2017-03-31T11:53:00.744Z,21.6
2017-03-31T11:54:08.826Z,21.7
2017-03-31T11:55:16.919Z,21.6
2017-03-31T11:56:25.011Z,21.6
2017-03-31T11:57:33.095Z,21.7
2017-03-31T11:58:41.182Z,21.7
2017-03-31T11:59:49.270Z,21.7
2017-03-31T12:00:57.352Z,21.6
2017-03-31T12:02:05.437Z,21.7
2017-03-31T12:03:13.528Z,21.7
2017-03-31T12:04:21.654Z,21.7
2017-03-31T12:05:29.703Z,21.6
2017-03-31T12:06:37.795Z,21.7
2017-03-31T12:07:45.878Z,21.7
2017-03-31T12:08:53.965Z,21.6
2017-03-31T12:10:02.050Z,21.6
2017-03-31T12:11:10.332Z,21.7
2017-03-31T12:12:18.517Z,21.6
2017-03-31T12:13:26.941Z,21.8
2017-03-31T12:14:35.798Z,21.7
2017-03-31T12:15:42.629Z,21.7
2017-03-31T12:16:50.765Z,21.7
2017-03-31T12:17:58.954Z,21.8
2017-03-31T12:19:06.757Z,21.7
2017-03-31T12:20:14.838Z,21.7
2017-03-31T12:21:22.926Z,21.8
2017-03-31T12:22:31.013Z,21.7
2017-03-31T12:23:39.251Z,21.7
2017-03-31T12:24:47.615Z,21.7
2017-03-31T12:25:55.327Z,21.7
2017-03-31T12:27:03.363Z,21.7
2017-03-31T12:28:11.455Z,21.7
2017-03-31T12:29:19.534Z,21.7
2017-03-31T12:30:27.622Z,21.7
2017-03-31T12:31:35.713Z,21.8
2017-03-31T12:32:43.794Z,21.7
2017-03-31T12:33:51.885Z,21.8
2017-03-31T12:34:59.969Z,21.7
2017-03-31T12:36:08.074Z,21.8
2017-03-31T12:37:16.139Z,21.8
2017-03-31T12:38:24.233Z,21.8
2017-03-31T12:39:32.320Z,21.8
2017-03-31T12:40:40.406Z,21.8
2017-03-31T12:41:48.487Z,21.9
2017-03-31T12:42:56.582Z,21.8
2017-03-31T12:44:04.668Z,21.8
2017-03-31T12:45:12.756Z,21.8
2017-03-31T12:46:20.847Z,21.8
2017-03-31T12:47:28.933Z,21.8
2017-03-31T12:48:37.027Z,21.8
2017-03-31T12:49:45.276Z,21.8
2017-03-31T12:50:53.203Z,21.8
2017-03-31T12:52:01.288Z,21.8
2017-03-31T12:53:09.373Z,21.8
2017-03-31T12:54:17.461Z,21.8
2017-03-31T12:55:25.553Z,21.8
2017-03-31T12:56:33.642Z,21.8
2017-03-31T12:57:41.732Z,21.8
2017-03-31T12:58:50.303Z,21.9
2017-03-31T12:59:57.897Z,21.9
2017-03-31T13:01:05.988Z,21.9
2017-03-31T13:02:14.077Z,21.9
2017-03-31T13:03:22.164Z,21.9
2017-03-31T13:04:30.244Z,21.8
2017-03-31T13:05:38.337Z,21.9
2017-03-31T13:06:46.434Z,21.9
2017-03-31T13:07:54.509Z,21.9
2017-03-31T13:09:02.592Z,21.9
2017-03-31T13:10:10.681Z,21.9
2017-03-31T13:11:18.767Z,21.9
2017-03-31T13:12:26.854Z,21.9
2017-03-31T13:13:34.942Z,21.9
2017-03-31T13:14:43.028Z,21.9
2017-03-31T13:15:51.116Z,21.9
2017-03-31T13:16:59.200Z,21.9
2017-03-31T13:18:07.290Z,21.9
2017-03-31T13:19:15.374Z,21.9
2017-03-31T13:20:23.459Z,21.9
2017-03-31T13:21:31.546Z,21.9
2017-03-31T13:22:39.665Z,21.9
2017-03-31T13:23:47.719Z,21.9
2017-03-31T13:24:55.806Z,21.9
2017-03-31T13:26:03.895Z,21.9
2017-03-31T13:27:11.984Z,21.9
2017-03-31T13:28:20.066Z,21.9
2017-03-31T13:29:28.155Z,21.9
2017-03-31T13:30:36.244Z,21.9
2017-03-31T13:31:44.331Z,21.9
2017-03-31T13:32:52.421Z,21.9
2017-03-31T13:34:00.504Z,21.9
2017-03-31T13:35:08.592Z,21.9
2017-03-31T13:36:16.679Z,21.9
2017-03-31T13:37:24.766Z,21.9
2017-03-31T13:38:32.851Z,22.0
2017-03-31T13:39:40.941Z,22.0
2017-03-31T13:40:49.173Z,21.9
2017-03-31T13:41:57.113Z,21.9
2017-03-31T13:43:05.198Z,21.9
2017-03-31T13:44:13.282Z,22.0
2017-03-31T13:45:21.371Z,21.9
2017-03-31T13:46:29.455Z,22.0
2017-03-31T13:47:37.541Z,21.9
2017-03-31T13:48:45.628Z,22.0
2017-03-31T13:49:53.719Z,22.0
2017-03-31T13:51:01.802Z,21.9
2017-03-31T13:52:09.886Z,21.9
2017-03-31T13:53:17.975Z,22.0
2017-03-31T13:54:26.062Z,21.9
2017-03-31T13:55:34.150Z,21.9
2017-03-31T13:56:42.230Z,22.0
2017-03-31T13:57:50.324Z,22.0
2017-03-31T13:58:58.406Z,21.9
2017-03-31T14:00:06.549Z,21.9
2017-03-31T14:01:14.582Z,22.0
2017-03-31T14:02:22.668Z,22.0
2017-03-31T14:03:30.755Z,21.9
2017-03-31T14:04:38.843Z,21.9
2017-03-31T14:05:46.934Z,22.1
2017-03-31T14:06:55.019Z,21.9
2017-03-31T14:08:03.103Z,21.9
2017-03-31T14:09:11.191Z,22.0
2017-03-31T14:10:19.280Z,22.0
2017-03-31T14:11:27.362Z,22.0
2017-03-31T14:12:35.456Z,21.9
2017-03-31T14:13:43.542Z,22.0
2017-03-31T14:14:51.626Z,22.0
2017-03-31T14:15:59.716Z,22.0
2017-03-31T14:17:07.853Z,21.9
2017-03-31T14:18:15.891Z,22.0
2017-03-31T14:19:23.977Z,22.0
2017-03-31T14:20:32.067Z,22.1
2017-03-31T14:21:40.152Z,22.0
2017-03-31T14:22:48.236Z,22.0
2017-03-31T14:23:56.324Z,22.0
2017-03-31T14:25:04.413Z,22.0
2017-03-31T14:26:12.498Z,22.0
2017-03-31T14:27:20.584Z,22.0
2017-03-31T14:28:28.671Z,22.0
2017-03-31T14:29:36.759Z,22.1
2017-03-31T14:30:44.844Z,22.1
2017-03-31T14:31:52.927Z,22.0
2017-03-31T14:33:01.025Z,22.0
2017-03-31T14:34:09.112Z,22.1
2017-03-31T14:35:17.197Z,22.1
2017-03-31T14:36:25.286Z,22.1
2017-03-31T14:37:33.371Z,22.1
2017-03-31T14:38:41.453Z,22.1
2017-03-31T14:39:49.539Z,22.0
2017-03-31T14:40:57.628Z,22.1
2017-03-31T14:42:05.715Z,22.1
2017-03-31T14:43:13.803Z,22.0
2017-03-31T14:44:21.891Z,22.1
2017-03-31T14:45:29.974Z,22.0
2017-03-31T14:46:38.056Z,22.1
2017-03-31T14:47:46.156Z,22.1
2017-03-31T14:48:54.235Z,22.1
2017-03-31T14:50:02.324Z,22.1
2017-03-31T14:51:10.403Z,22.1
2017-03-31T14:52:18.500Z,22.0
2017-03-31T14:53:26.586Z,22.1
2017-03-31T14:54:34.671Z,22.1
2017-03-31T14:55:42.754Z,22.1
2017-03-31T14:56:50.845Z,22.1
2017-03-31T14:57:58.931Z,22.1
2017-03-31T14:59:07.015Z,22.1
2017-03-31T15:00:15.105Z,22.1
2017-03-31T15:01:23.190Z,22.1
2017-03-31T15:02:31.272Z,22.1
2017-03-31T15:03:39.357Z,22.0
2017-03-31T15:04:47.447Z,22.1
2017-03-31T15:05:55.533Z,22.0